Time;durP1;ratioP1;P1;durP2;ratioP2;P2;SDS_P1;SDS_P2;PMS_P1;PMS_P2;Temp;Humidity;BMP_temperature;BMP_pressure;BME280_temperature;BME280_humidity;BME280_pressure;Samples;Min_cycle;Max_cycle;Signal;HPM_P1;HPM_P2
2022/12/05 00:01:01;;;;;;;;;40.25;29.75;;;;;4.61;76.08;100974.25;5096392;27;45551;-59
2022/12/05 00:03:26;;;;;;;;;22.50;17.75;;;;;4.59;75.95;100978.69;5096012;27;45576;-60
2022/12/05 00:05:51;;;;;;;;;39.25;28.25;;;;;4.58;76.46;100990.13;5105725;27;46035;-59
2022/12/05 00:08:17;;;;;;;;;39.25;33.50;;;;;4.40;76.30;100977.41;5098636;27;45491;-60
2022/12/05 00:10:43;;;;;;;;;38.75;35.25;;;;;4.35;75.92;100981.91;5080137;27;45606;-59
2022/12/05 00:13:09;;;;;;;;;35.00;28.25;;;;;4.25;75.88;100959.34;5116694;27;45301;-60
2022/12/05 00:15:38;;;;;;;;;41.00;35.75;;;;;4.49;76.21;100995.63;5099869;27;45487;-59
2022/12/05 00:18:04;;;;;;;;;41.50;31.00;;;;;4.53;76.21;100997.25;5096168;27;45610;-58
2022/12/05 00:20:29;;;;;;;;;50.75;44.00;;;;;4.55;76.55;100995.44;5094393;27;45622;-59
2022/12/05 00:22:54;;;;;;;;;37.00;31.00;;;;;4.44;76.49;100998.38;5102867;27;45410;-59
2022/12/05 00:25:20;;;;;;;;;36.50;31.00;;;;;4.41;76.50;100987.88;5096213;27;46188;-59
2022/12/05 00:27:45;;;;;;;;;40.00;34.50;;;;;4.29;76.42;100988.19;5091411;27;46911;-60
2022/12/05 00:30:11;;;;;;;;;42.25;32.00;;;;;4.36;76.72;101002.06;5088844;27;46748;-59
2022/12/05 00:32:36;;;;;;;;;29.75;28.00;;;;;4.25;76.68;100990.94;5098661;27;45500;-63
2022/12/05 00:35:02;;;;;;;;;36.25;32.00;;;;;4.28;77.13;101004.00;5098742;27;46214;-58
2022/12/05 00:37:27;;;;;;;;;35.25;32.75;;;;;4.18;76.56;100986.72;5088506;27;47304;-59
2022/12/05 00:39:53;;;;;;;;;28.00;23.00;;;;;4.25;77.03;101012.00;5085684;27;45344;-63
2022/12/05 00:42:18;;;;;;;;;40.75;35.00;;;;;4.22;76.27;100981.34;5082058;27;45352;-57
2022/12/05 00:44:43;;;;;;;;;32.25;25.25;;;;;4.30;77.29;100989.06;5081246;27;47008;-60
2022/12/05 00:47:09;;;;;;;;;36.25;32.00;;;;;4.41;76.71;100997.56;5099713;27;45442;-60
2022/12/05 00:49:34;;;;;;;;;42.50;33.00;;;;;4.36;75.71;101007.34;5078613;27;45250;-58
2022/12/05 00:52:00;;;;;;;;;38.25;33.50;;;;;4.34;76.52;101002.13;5097751;27;45367;-59
2022/12/05 00:54:25;;;;;;;;;41.75;35.75;;;;;4.25;75.85;100994.44;5096740;27;45477;-59
2022/12/05 00:56:55;;;;;;;;;44.25;31.25;;;;;4.25;76.37;100981.25;5078795;27;45462;-59
2022/12/05 00:59:20;;;;;;;;;36.25;32.50;;;;;4.43;76.43;100995.78;5084723;27;45399;-59
2022/12/05 01:01:48;;;;;;;;;44.00;36.00;;;;;4.45;75.80;101009.75;5092427;27;45354;-59
2022/12/05 01:04:24;;;;;;;;;38.25;33.25;;;;;4.37;76.26;100995.91;5079726;27;45378;-59
2022/12/05 01:06:52;;;;;;;;;38.00;35.00;;;;;4.45;76.83;101009.75;5086161;27;45528;-59
2022/12/05 01:09:19;;;;;;;;;38.50;30.75;;;;;4.35;77.31;101008.25;5099086;27;45393;-59
2022/12/05 01:11:45;;;;;;;;;42.50;38.75;;;;;4.26;76.99;101014.59;5082741;27;45403;-58
2022/12/05 01:14:13;;;;;;;;;48.75;37.75;;;;;4.31;77.67;101025.03;5060639;28;46409;-59
2022/12/05 01:16:41;;;;;;;;;39.50;34.75;;;;;4.27;77.63;101011.06;5075281;27;47348;-60
2022/12/05 01:19:13;;;;;;;;;32.75;30.25;;;;;4.27;76.89;101020.72;5090866;27;45373;-59
2022/12/05 01:21:39;;;;;;;;;55.00;41.25;;;;;4.20;76.64;101024.41;5098476;27;47215;-59
2022/12/05 01:24:04;;;;;;;;;48.50;38.25;;;;;4.12;77.31;101022.81;5084207;27;46188;-59
2022/12/05 01:26:30;;;;;;;;;38.25;29.25;;;;;4.14;77.33;101031.53;5096054;27;45484;-58
2022/12/05 01:28:55;;;;;;;;;46.50;33.25;;;;;4.05;76.97;101034.38;5093705;27;45465;-60
2022/12/05 01:31:27;;;;;;;;;50.25;39.75;;;;;4.09;77.80;101045.69;5106945;27;45655;-60
2022/12/05 01:33:54;;;;;;;;;45.50;36.50;;;;;4.09;77.29;101049.19;5089099;27;45329;-59
2022/12/05 01:36:22;;;;;;;;;47.75;43.75;;;;;4.08;77.00;101052.72;5095730;27;45432;-61
2022/12/05 01:38:48;;;;;;;;;41.75;38.00;;;;;4.01;77.56;101040.59;5099413;27;45193;-62
2022/12/05 01:41:17;;;;;;;;;41.25;35.00;;;;;4.05;77.55;101052.81;5097626;27;45671;-60
2022/12/05 01:43:53;;;;;;;;;45.75;39.00;;;;;4.02;77.03;101052.84;5099341;27;47780;-59
2022/12/05 01:46:18;;;;;;;;;45.00;35.25;;;;;4.03;76.70;101051.09;5098399;27;45364;-59
2022/12/05 01:48:44;;;;;;;;;43.50;40.00;;;;;4.04;77.07;101061.59;5107403;27;45790;-58
2022/12/05 01:51:10;;;;;;;;;50.00;39.00;;;;;4.02;76.89;101063.38;5099923;27;45444;-60
2022/12/05 01:53:35;;;;;;;;;37.00;32.00;;;;;4.06;77.16;101067.69;5113251;27;45374;-59
2022/12/05 01:56:01;;;;;;;;;45.50;39.75;;;;;4.17;77.21;101080.63;5099387;27;45737;-59
2022/12/05 01:58:32;;;;;;;;;43.50;40.50;;;;;4.20;77.10;101083.19;5098968;27;45410;-61
2022/12/05 02:01:00;;;;;;;;;44.75;39.00;;;;;4.20;76.54;101099.00;5098331;27;45264;-60
2022/12/05 02:03:26;;;;;;;;;31.00;24.50;;;;;4.25;76.83;101096.25;5089401;27;46126;-59
2022/12/05 02:05:55;;;;;;;;;46.00;38.00;;;;;4.26;77.19;101100.59;5100198;27;45365;-59
2022/12/05 02:08:21;;;;;;;;;40.75;37.50;;;;;4.12;76.11;101080.72;5071640;27;45320;-58
2022/12/05 02:10:51;;;;;;;;;43.50;34.25;;;;;4.20;76.08;101093.72;5114336;27;45287;-60
2022/12/05 02:13:47;;;;;;;;;53.00;43.50;;;;;4.26;76.36;101088.31;5098102;27;45274;-60
2022/12/05 02:16:31;;;;;;;;;50.00;37.25;;;;;4.29;76.76;101090.00;5099060;27;45315;-61
2022/12/05 02:18:57;;;;;;;;;53.75;43.00;;;;;4.32;77.46;101087.31;5109031;27;45329;-60
2022/12/05 02:21:34;;;;;;;;;43.75;38.25;;;;;4.33;78.23;101087.28;5117034;27;45248;-60
2022/12/05 02:24:32;;;;;;;;;53.25;44.50;;;;;4.34;78.03;101088.16;5112394;27;47285;-59
2022/12/05 02:27:49;;;;;;;;;56.75;43.50;;;;;4.29;77.41;101092.63;5088441;27;45331;-59
2022/12/05 02:30:23;;;;;;;;;54.50;46.00;;;;;4.18;76.52;101089.41;5061541;28;45653;-59
2022/12/05 02:32:48;;;;;;;;;42.50;40.50;;;;;4.13;77.03;101089.47;5060476;27;45526;-58
2022/12/05 02:35:20;;;;;;;;;47.00;41.00;;;;;4.07;77.01;101085.22;5095185;27;45479;-60
2022/12/05 02:38:08;;;;;;;;;41.50;28.75;;;;;3.99;76.97;101084.50;5104557;27;45322;-58
2022/12/05 02:40:42;;;;;;;;;46.25;30.25;;;;;3.90;77.88;101082.06;5086705;27;45372;-59
2022/12/05 02:43:15;;;;;;;;;48.00;43.25;;;;;3.99;77.11;101087.13;5101095;27;45255;-58
2022/12/05 02:45:44;;;;;;;;;54.00;44.50;;;;;3.93;77.25;101089.91;5107969;27;45329;-59
2022/12/05 02:48:14;;;;;;;;;41.25;34.75;;;;;3.80;77.49;101080.53;5080852;27;45461;-60
2022/12/05 02:50:42;;;;;;;;;54.25;40.50;;;;;3.97;78.16;101091.56;5093416;27;45304;-60
2022/12/05 02:53:10;;;;;;;;;58.75;47.50;;;;;3.98;77.36;101088.03;5099976;27;45409;-61
2022/12/05 02:55:38;;;;;;;;;57.25;46.50;;;;;3.92;77.56;101082.91;5118387;27;45413;-59
2022/12/05 02:58:10;;;;;;;;;55.25;43.75;;;;;3.95;78.05;101093.38;5105300;27;45556;-59
2022/12/05 03:00:39;;;;;;;;;57.25;44.25;;;;;3.93;77.87;101096.94;5094360;27;45568;-58
2022/12/05 03:03:14;;;;;;;;;50.75;40.50;;;;;3.94;77.37;101091.66;5096241;27;45358;-60
2022/12/05 03:05:57;;;;;;;;;55.75;42.25;;;;;3.90;76.98;101086.44;5097641;27;45349;-61
2022/12/05 03:08:28;;;;;;;;;52.00;43.50;;;;;3.88;77.87;101088.25;5098807;27;45460;-59
2022/12/05 03:10:55;;;;;;;;;58.50;45.75;;;;;3.90;78.06;101087.31;5080369;27;45433;-61
2022/12/05 03:13:26;;;;;;;;;51.00;46.50;;;;;3.94;77.38;101083.75;5091661;27;45551;-58
2022/12/05 03:15:57;;;;;;;;;51.00;44.75;;;;;3.92;78.20;101087.31;5077467;27;46200;-60
2022/12/05 03:18:28;;;;;;;;;60.25;47.25;;;;;3.97;77.69;101095.97;5091920;27;45373;-60
2022/12/05 03:21:03;;;;;;;;;58.75;44.50;;;;;3.98;77.74;101090.66;5099683;27;45388;-60
2022/12/05 03:23:36;;;;;;;;;53.25;44.50;;;;;4.01;78.40;101093.22;5109761;27;45500;-60
2022/12/05 03:26:26;;;;;;;;;65.50;45.25;;;;;4.06;77.71;101094.03;5084985;27;45389;-60
2022/12/05 03:29:12;;;;;;;;;61.00;43.50;;;;;4.12;78.31;101096.50;5085534;27;45707;-60
2022/12/05 03:31:44;;;;;;;;;60.25;46.50;;;;;4.08;77.47;101097.47;5097217;27;45437;-60
2022/12/05 03:34:24;;;;;;;;;51.50;43.00;;;;;3.99;77.90;101096.81;5097378;27;45521;-59
2022/12/05 03:36:52;;;;;;;;;48.25;36.25;;;;;3.85;77.35;101092.69;5096549;27;47105;-59
2022/12/05 03:39:26;;;;;;;;;53.75;40.50;;;;;3.93;78.71;101100.44;5097336;27;45542;-59
2022/12/05 03:42:01;;;;;;;;;46.75;39.75;;;;;3.93;78.28;101104.84;5096321;27;45370;-59
2022/12/05 03:44:36;;;;;;;;;49.25;41.75;;;;;3.87;77.99;101105.81;5077745;27;48502;-59
2022/12/05 03:47:15;;;;;;;;;53.75;45.25;;;;;3.81;77.91;101106.81;5096014;27;46780;-60
2022/12/05 03:49:47;;;;;;;;;42.75;29.75;;;;;3.81;77.26;101111.22;5097124;27;45485;-59
2022/12/05 03:52:19;;;;;;;;;50.00;44.00;;;;;3.67;78.12;101093.06;5083568;27;45485;-59
2022/12/05 03:54:52;;;;;;;;;66.75;47.25;;;;;3.74;78.11;101118.34;5076984;27;45545;-59
2022/12/05 03:57:29;;;;;;;;;66.00;46.25;;;;;3.71;79.18;101110.53;5088899;27;45580;-63
2022/12/05 04:00:03;;;;;;;;;60.75;44.75;;;;;3.74;78.88;101110.44;5076559;27;45492;-58
2022/12/05 04:02:48;;;;;;;;;58.75;46.50;;;;;3.83;78.12;101119.94;5077236;27;45449;-60
2022/12/05 04:05:20;;;;;;;;;64.50;46.25;;;;;3.90;78.20;101118.91;5093859;27;45443;-59
2022/12/05 04:07:50;;;;;;;;;68.50;49.50;;;;;3.92;78.93;101122.38;5058434;27;46203;-60
2022/12/05 04:10:21;;;;;;;;;53.75;42.25;;;;;3.98;78.61;101131.91;5076650;28;45354;-59
2022/12/05 04:12:50;;;;;;;;;56.50;43.00;;;;;3.98;77.50;101130.16;5083042;27;45528;-58
2022/12/05 04:17:02;;;;;;;;;60.75;45.25;;;;;3.98;77.62;101122.25;5077029;27;45536;-58
2022/12/05 04:18:20;;;;;;;;;53.50;44.00;;;;;4.07;78.16;101129.97;5080021;27;46037;-59
2022/12/05 04:23:34;;;;;;;;;54.25;44.00;;;;;4.13;78.55;101132.47;5052306;28;45431;-59
2022/12/05 04:26:12;;;;;;;;;45.75;39.75;;;;;4.12;77.89;101132.50;5084980;27;45619;-57
2022/12/05 04:28:59;;;;;;;;;54.50;46.50;;;;;4.16;77.96;101136.78;5108840;27;46185;-58
2022/12/05 04:31:33;;;;;;;;;57.00;45.25;;;;;4.18;78.21;101116.59;5086751;27;45495;-58
2022/12/05 04:34:09;;;;;;;;;56.00;47.50;;;;;4.21;78.04;101137.56;5088709;27;45177;-58
2022/12/05 04:36:55;;;;;;;;;46.00;42.75;;;;;4.17;77.84;101130.66;5077206;28;45598;-59
2022/12/05 04:39:44;;;;;;;;;57.50;43.75;;;;;4.20;77.50;101137.59;5092094;27;46912;-59
2022/12/05 04:42:15;;;;;;;;;58.75;45.75;;;;;4.16;77.74;101134.16;5096557;27;45370;-61
2022/12/05 04:44:54;;;;;;;;;60.25;44.75;;;;;4.21;77.24;101137.56;5096726;27;45495;-59
2022/12/05 04:47:25;;;;;;;;;56.50;46.25;;;;;4.21;77.50;101136.72;5077986;27;46555;-59
2022/12/05 04:49:54;;;;;;;;;49.25;40.50;;;;;4.24;77.32;101137.50;5090813;27;45469;-58
2022/12/05 04:52:20;;;;;;;;;53.00;42.25;;;;;4.26;77.11;101138.34;5095529;27;45486;-60
2022/12/05 04:54:51;;;;;;;;;52.00;45.50;;;;;4.33;77.28;101157.50;5094970;27;45460;-59
2022/12/05 04:57:25;;;;;;;;;51.75;43.75;;;;;4.32;77.33;101150.50;5079314;27;45358;-59
2022/12/05 04:59:51;;;;;;;;;45.75;36.75;;;;;4.21;76.48;101157.78;5076033;27;45429;-60
2022/12/05 05:02:43;;;;;;;;;47.25;39.25;;;;;4.14;76.38;101157.88;5092416;27;45428;-64
2022/12/05 05:05:10;;;;;;;;;63.75;45.75;;;;;4.12;76.61;101164.94;5091212;27;45584;-60
2022/12/05 05:07:49;;;;;;;;;40.00;33.25;;;;;4.12;77.24;101154.41;5081089;27;45239;-60
2022/12/05 05:10:20;;;;;;;;;44.00;41.00;;;;;4.12;76.84;101149.16;5083015;27;45406;-60
2022/12/05 05:12:45;;;;;;;;;48.25;41.25;;;;;4.09;76.83;101157.13;5088743;27;45446;-59
2022/12/05 05:15:10;;;;;;;;;60.25;43.00;;;;;4.09;77.65;101151.84;5057273;28;45442;-59
2022/12/05 05:17:36;;;;;;;;;50.75;42.50;;;;;4.06;77.14;101151.06;5093049;27;45290;-59
2022/12/05 05:22:50;;;;;;;;;46.25;37.25;;;;;4.19;77.17;101159.56;5088471;27;45236;-59
2022/12/05 05:25:16;;;;;;;;;37.75;32.25;;;;;4.21;77.07;101166.53;5094637;27;45398;-59
2022/12/05 05:27:42;;;;;;;;;44.75;39.00;;;;;4.10;77.33;101165.88;5098648;27;45415;-59
2022/12/05 05:30:08;;;;;;;;;35.00;29.25;;;;;4.06;76.54;101161.59;5099380;27;45703;-59
2022/12/05 05:32:33;;;;;;;;;44.50;36.00;;;;;4.03;76.69;101161.63;5085045;27;45438;-60
2022/12/05 05:34:58;;;;;;;;;41.00;33.50;;;;;4.07;77.58;101172.06;5060992;27;45668;-59
2022/12/05 05:37:24;;;;;;;;;41.50;36.00;;;;;4.06;77.65;101172.13;5098105;27;45560;-59
2022/12/05 05:39:49;;;;;;;;;37.75;30.50;;;;;3.97;77.73;101160.00;5089347;27;50174;-59
2022/12/05 05:42:14;;;;;;;;;42.00;30.00;;;;;4.04;77.81;101176.53;5095938;27;45588;-60
2022/12/05 05:44:40;;;;;;;;;20.25;10.50;;;;;3.97;78.36;101162.63;5098858;27;45472;-60
2022/12/05 05:47:05;;;;;;;;;44.50;35.50;;;;;4.06;78.01;101191.41;5099081;27;45196;-60
2022/12/05 05:49:31;;;;;;;;;33.50;30.75;;;;;4.16;78.19;101192.06;5098975;27;45920;-59
2022/12/05 05:51:56;;;;;;;;;31.25;28.75;;;;;4.24;78.67;101189.28;5082334;27;45316;-60
2022/12/05 05:54:21;;;;;;;;;32.25;25.50;;;;;4.24;77.37;101190.16;5084047;27;45291;-59
2022/12/05 05:56:47;;;;;;;;;37.00;31.75;;;;;4.25;78.09;101191.03;5090850;27;45207;-59
2022/12/05 05:59:12;;;;;;;;;40.50;34.25;;;;;4.24;77.36;101189.28;5080233;27;45289;-60
2022/12/05 06:01:37;;;;;;;;;55.00;37.00;;;;;4.23;76.59;101196.31;5088792;27;45343;-60
2022/12/05 06:04:03;;;;;;;;;34.25;34.00;;;;;4.20;77.35;101187.63;5099296;27;45424;-58
2022/12/05 06:06:28;;;;;;;;;49.25;41.75;;;;;4.29;77.89;101203.22;5098347;27;45342;-59
2022/12/05 06:08:54;;;;;;;;;37.00;33.00;;;;;4.28;77.87;101204.13;5097142;27;45467;-58
2022/12/05 06:11:23;;;;;;;;;50.25;33.75;;;;;4.35;76.46;101213.63;5098452;27;45489;-60
2022/12/05 06:13:48;;;;;;;;;41.25;29.50;;;;;4.32;77.48;101208.44;5100660;27;45335;-59
2022/12/05 06:16:16;;;;;;;;;38.75;32.75;;;;;4.18;76.61;101194.69;5099050;27;45548;-60
2022/12/05 06:18:42;;;;;;;;;37.00;36.75;;;;;4.21;76.00;101205.16;5096831;27;45199;-58
2022/12/05 06:21:09;;;;;;;;;44.00;38.50;;;;;4.31;76.57;101206.72;5083588;27;45553;-59
2022/12/05 06:23:36;;;;;;;;;35.25;33.50;;;;;4.28;76.89;101212.00;5097889;27;45413;-62
2022/12/05 06:26:03;;;;;;;;;41.75;35.50;;;;;4.32;75.70;101211.06;5113332;27;45412;-59
2022/12/05 06:28:29;;;;;;;;;44.50;37.50;;;;;4.34;76.68;101211.91;5096185;27;45318;-59
2022/12/05 06:30:54;;;;;;;;;40.00;32.50;;;;;4.32;76.19;101208.44;5098545;27;45266;-59
2022/12/05 06:33:20;;;;;;;;;46.00;38.75;;;;;4.35;76.45;101224.19;5079283;27;45197;-58
2022/12/05 06:35:46;;;;;;;;;38.25;37.00;;;;;4.32;76.42;101225.09;5091850;27;46747;-62
2022/12/05 06:38:11;;;;;;;;;51.75;37.25;;;;;4.26;76.10;101229.63;5091852;27;46252;-61
2022/12/05 06:40:41;;;;;;;;;37.00;33.50;;;;;4.24;75.50;101234.03;5087220;27;45482;-60
2022/12/05 06:43:07;;;;;;;;;42.50;35.00;;;;;4.20;76.46;101245.53;5096605;27;45488;-60
2022/12/05 06:45:32;;;;;;;;;41.75;38.00;;;;;4.28;77.16;101243.59;5079240;27;45808;-58
2022/12/05 06:47:58;;;;;;;;;36.00;31.25;;;;;4.32;77.28;101246.19;5079416;27;46151;-60
2022/12/05 06:50:23;;;;;;;;;36.50;31.25;;;;;4.35;76.75;101247.88;5096434;27;45464;-60
2022/12/05 06:52:50;;;;;;;;;43.75;32.75;;;;;4.33;75.09;101257.56;5083649;27;45536;-58
2022/12/05 06:55:15;;;;;;;;;41.00;35.50;;;;;4.27;75.99;101237.47;5098182;27;45536;-63
2022/12/05 06:57:40;;;;;;;;;45.00;35.00;;;;;4.28;75.85;101238.34;5095676;27;46066;-61
2022/12/05 07:02:51;;;;;;;;;48.25;40.75;;;;;4.24;76.30;101260.38;5081368;27;45389;-62
2022/12/05 07:05:17;;;;;;;;;45.25;40.75;;;;;4.26;76.73;101254.19;5092720;27;45306;-61
2022/12/05 07:07:43;;;;;;;;;39.00;33.50;;;;;4.32;76.79;101250.56;5076701;27;45410;-60
2022/12/05 07:10:08;;;;;;;;;44.00;34.00;;;;;4.41;76.36;101263.53;5095896;27;45509;-60
2022/12/05 07:12:34;;;;;;;;;37.50;32.00;;;;;4.38;76.07;101268.88;5098212;27;45364;-59
2022/12/05 07:14:59;;;;;;;;;39.50;32.50;;;;;4.36;76.08;101268.91;5096525;27;46043;-61
2022/12/05 07:17:25;;;;;;;;;44.25;37.00;;;;;4.42;75.77;101273.16;5063283;27;47163;-61
2022/12/05 07:19:51;;;;;;;;;39.25;35.50;;;;;4.35;75.91;101282.09;5096438;27;45400;-61
2022/12/05 07:22:19;;;;;;;;;42.75;34.75;;;;;4.19;75.31;101283.31;5076718;27;45464;-60
2022/12/05 07:24:45;;;;;;;;;36.75;32.50;;;;;4.21;75.26;101284.13;5093246;27;45271;-60
2022/12/05 07:27:13;;;;;;;;;35.75;33.50;;;;;4.20;75.70;101285.91;5084610;27;45484;-60
2022/12/05 07:29:38;;;;;;;;;38.25;31.25;;;;;4.20;75.76;101271.88;5084953;27;45412;-61
2022/12/05 07:32:04;;;;;;;;;37.25;33.25;;;;;4.31;76.46;101277.81;5087602;27;45428;-60
2022/12/05 07:34:30;;;;;;;;;45.00;39.25;;;;;4.40;75.59;101289.00;5090680;27;45419;-60
2022/12/05 07:36:55;;;;;;;;;46.75;38.00;;;;;4.37;76.34;101286.44;5095799;27;46581;-60
2022/12/05 07:39:20;;;;;;;;;53.00;39.50;;;;;4.41;75.65;101292.50;5084074;27;45461;-60
2022/12/05 07:41:46;;;;;;;;;32.75;29.00;;;;;4.29;75.06;101276.94;5063339;28;45542;-61
2022/12/05 07:44:12;;;;;;;;;31.75;28.25;;;;;4.21;74.80;101299.94;5092845;27;45500;-60
2022/12/05 07:46:38;;;;;;;;;56.00;44.25;;;;;4.13;76.19;101300.06;5087124;27;46836;-59
2022/12/05 07:49:04;;;;;;;;;45.25;40.50;;;;;4.12;75.85;101301.81;5090448;27;45223;-61
2022/12/05 07:51:30;;;;;;;;;48.00;42.25;;;;;4.23;76.94;101303.41;5094510;27;45700;-61
2022/12/05 07:53:57;;;;;;;;;41.00;33.50;;;;;4.25;75.81;101294.56;5079251;27;45302;-60
2022/12/05 07:56:22;;;;;;;;;38.75;31.50;;;;;4.29;75.91;101304.13;5092518;27;46587;-60
2022/12/05 07:58:49;;;;;;;;;52.75;43.00;;;;;4.37;76.67;101309.28;5113116;27;45250;-60
2022/12/05 08:01:17;;;;;;;;;41.75;28.00;;;;;4.24;76.37;101306.00;5114593;27;45397;-58
2022/12/05 08:03:43;;;;;;;;;52.25;43.75;;;;;4.26;77.02;101314.72;5096927;27;45368;-58
2022/12/05 08:06:14;;;;;;;;;40.50;33.75;;;;;4.28;77.15;101317.34;5074585;27;45838;-60
2022/12/05 08:08:40;;;;;;;;;46.75;38.25;;;;;4.27;76.81;101321.75;5077242;28;45414;-59
2022/12/05 08:11:08;;;;;;;;;49.75;45.00;;;;;4.26;77.08;101334.94;5084938;27;45416;-60
2022/12/05 08:13:34;;;;;;;;;54.00;42.75;;;;;4.27;76.52;101316.47;5098134;27;45681;-57
2022/12/05 08:16:11;;;;;;;;;41.00;36.75;;;;;4.29;76.81;101329.59;5096980;27;45235;-63
2022/12/05 08:18:36;;;;;;;;;46.00;38.75;;;;;4.32;77.10;101340.09;5075880;27;45326;-59
2022/12/05 08:21:07;;;;;;;;;50.75;38.50;;;;;4.34;76.80;101344.44;5088881;27;45662;-60
2022/12/05 08:23:34;;;;;;;;;53.50;45.25;;;;;4.36;76.25;101347.03;5091727;27;45611;-59
2022/12/05 08:26:09;;;;;;;;;46.00;40.00;;;;;4.29;76.38;101343.63;5088634;27;45255;-59
2022/12/05 08:28:36;;;;;;;;;40.25;32.25;;;;;4.36;76.69;101350.53;5077845;27;45441;-59
2022/12/05 08:31:10;;;;;;;;;52.00;37.75;;;;;4.26;77.32;101346.34;5077836;27;45589;-60
2022/12/05 08:33:37;;;;;;;;;57.25;43.00;;;;;4.26;76.84;101348.09;5096632;27;45316;-61
2022/12/05 08:36:04;;;;;;;;;51.00;40.00;;;;;4.35;75.81;101353.22;5088905;27;55770;-60
2022/12/05 08:38:30;;;;;;;;;50.75;42.00;;;;;4.38;75.55;101350.50;5065787;27;46531;-60
2022/12/05 08:40:56;;;;;;;;;57.75;43.00;;;;;4.43;76.58;101348.69;5095869;27;45448;-60
2022/12/05 08:43:21;;;;;;;;;50.00;41.50;;;;;4.45;76.93;101346.88;5095143;27;45647;-60
2022/12/05 08:45:51;;;;;;;;;52.50;35.25;;;;;4.33;76.13;101342.72;5095378;27;45483;-62
2022/12/05 08:48:18;;;;;;;;;40.50;34.25;;;;;4.34;75.22;101347.06;5077619;27;45321;-61
2022/12/05 08:50:43;;;;;;;;;52.00;44.25;;;;;4.29;76.01;101353.31;5077950;27;45758;-61
2022/12/05 08:53:09;;;;;;;;;64.25;46.50;;;;;4.35;76.89;101361.09;5096204;27;45905;-59
2022/12/05 08:55:34;;;;;;;;;62.50;40.00;;;;;4.37;77.24;101360.19;5099854;27;45942;-58
2022/12/05 08:58:00;;;;;;;;;47.50;40.75;;;;;4.39;77.11;101353.09;5084119;27;45473;-57
2022/12/05 09:00:25;;;;;;;;;41.75;40.00;;;;;4.32;75.98;101362.03;5081170;28;45735;-64
2022/12/05 09:02:51;;;;;;;;;57.25;46.50;;;;;4.31;77.26;101365.56;5098187;27;45538;-61
2022/12/05 09:05:17;;;;;;;;;58.75;43.00;;;;;4.41;76.19;101371.50;5080057;28;46181;-61
2022/12/05 09:07:43;;;;;;;;;62.25;47.00;;;;;4.41;77.20;101366.25;5079260;28;45442;-59
2022/12/05 09:10:09;;;;;;;;;57.75;43.75;;;;;4.36;75.65;101368.97;5080225;27;45464;-60
2022/12/05 09:12:36;;;;;;;;;42.50;39.00;;;;;4.35;75.74;101371.63;5061054;28;45266;-59
2022/12/05 09:15:01;;;;;;;;;57.25;44.75;;;;;4.34;75.78;101378.69;5079904;28;45234;-58
2022/12/05 09:17:27;;;;;;;;;52.75;39.50;;;;;4.41;76.69;101371.50;5081980;28;45418;-59
2022/12/05 09:19:52;;;;;;;;;41.00;34.00;;;;;4.42;75.27;101376.75;5090420;27;45452;-58
2022/12/05 09:22:17;;;;;;;;;53.25;41.75;;;;;4.41;75.62;101371.50;5099940;27;45552;-60
2022/12/05 09:24:43;;;;;;;;;52.50;45.00;;;;;4.50;76.46;101374.00;5099212;27;46043;-63
2022/12/05 09:27:08;;;;;;;;;57.50;45.25;;;;;4.51;76.89;101373.09;5096438;27;45302;-59
2022/12/05 09:29:34;;;;;;;;;43.25;41.25;;;;;4.53;74.59;101381.81;5080848;27;45437;-59
2022/12/05 09:31:59;;;;;;;;;105.33;75.67;;;;;4.54;75.12;101383.56;5081575;27;45491;-59
2022/12/05 09:34:25;;;;;;;;;53.50;41.75;;;;;4.39;75.06;101354.88;5099586;27;45454;-60
2022/12/05 09:36:51;;;;;;;;;53.50;45.25;;;;;4.47;75.64;101366.16;5097963;27;45595;-63
2022/12/05 09:39:17;;;;;;;;;55.75;46.75;;;;;4.58;76.69;101385.25;5094923;27;45898;-61
2022/12/05 09:42:09;;;;;;;;;47.00;33.50;;;;;4.58;76.65;101377.34;5078641;28;45473;-60
2022/12/05 09:45:02;;;;;;;;;46.50;42.00;;;;;4.57;75.11;101388.78;5086508;27;45477;-59
2022/12/05 09:47:39;;;;;;;;;52.50;42.00;;;;;4.53;74.73;101388.88;5099594;27;45230;-60
2022/12/05 09:50:13;;;;;;;;;43.25;42.25;;;;;4.47;75.86;101384.59;5098023;27;45364;-60
2022/12/05 09:52:48;;;;;;;;;51.00;43.75;;;;;4.62;75.58;101386.06;5102149;27;45253;-60
2022/12/05 09:55:17;;;;;;;;;43.75;38.25;;;;;4.41;75.69;101382.03;5102388;27;47407;-60
2022/12/05 09:57:50;;;;;;;;;51.75;43.00;;;;;4.42;75.76;101403.09;5078055;27;45453;-60
2022/12/05 10:00:16;;;;;;;;;51.25;43.00;;;;;4.41;75.48;101390.81;5085800;27;45472;-59
2022/12/05 10:02:47;;;;;;;;;59.25;46.00;;;;;4.48;75.74;101399.50;5096446;27;45941;-60
2022/12/05 10:05:33;;;;;;;;;55.00;44.25;;;;;4.56;75.12;101408.13;5097773;27;45438;-59
2022/12/05 10:08:18;;;;;;;;;50.00;44.50;;;;;4.65;75.20;101414.97;5119191;27;45546;-61
2022/12/05 10:10:56;;;;;;;;;55.50;45.25;;;;;4.71;75.99;101405.22;5100613;27;45377;-59
2022/12/05 10:13:43;;;;;;;;;53.50;42.75;;;;;4.72;74.22;101409.59;5098632;27;45437;-60
2022/12/05 10:16:36;;;;;;;;;45.25;34.50;;;;;4.73;74.96;101413.09;5097420;27;45592;-61
2022/12/05 10:19:10;;;;;;;;;51.00;43.00;;;;;4.77;74.31;101403.34;5089079;27;45448;-60
2022/12/05 10:21:44;;;;;;;;;48.75;42.00;;;;;4.73;74.86;101398.13;5098346;27;45417;-59
2022/12/05 10:24:15;;;;;;;;;51.00;41.00;;;;;4.81;74.03;101407.66;5098349;27;45525;-61
2022/12/05 10:26:48;;;;;;;;;53.25;40.75;;;;;4.70;73.65;101389.44;5098497;27;46260;-59
2022/12/05 10:29:23;;;;;;;;;58.25;45.25;;;;;4.83;73.35;101404.13;5098873;27;45515;-62
2022/12/05 10:31:52;;;;;;;;;53.75;42.75;;;;;4.79;72.83;101401.53;5098078;27;45780;-61
2022/12/05 10:34:32;;;;;;;;;44.75;40.00;;;;;4.88;72.97;101409.28;5094222;27;45462;-61
2022/12/05 10:37:08;;;;;;;;;50.00;45.25;;;;;4.97;72.75;101403.84;5096321;27;46276;-63
2022/12/05 10:39:33;;;;;;;;;53.75;42.25;;;;;4.98;70.98;101410.84;5097949;27;45457;-61
2022/12/05 10:41:59;;;;;;;;;51.25;43.00;;;;;4.86;70.52;101405.81;5079791;27;45794;-59
2022/12/05 10:44:25;;;;;;;;;58.25;49.00;;;;;4.88;70.92;101404.00;5098163;27;45652;-62
2022/12/05 10:46:50;;;;;;;;;53.50;42.25;;;;;4.86;71.36;101400.53;5097615;27;45417;-58
2022/12/05 10:49:18;;;;;;;;;49.50;42.50;;;;;5.01;71.27;101394.97;5097763;27;45460;-60
2022/12/05 10:51:44;;;;;;;;;46.00;40.00;;;;;5.08;72.43;101401.84;5094966;27;45235;-59
2022/12/05 10:54:24;;;;;;;;;58.25;48.50;;;;;5.00;71.05;101398.50;5096897;27;45481;-60
2022/12/05 10:56:52;;;;;;;;;48.25;43.75;;;;;5.07;71.35;101391.31;5083982;27;45714;-60
2022/12/05 10:59:23;;;;;;;;;58.50;49.50;;;;;5.09;71.11;101397.44;5087146;27;45429;-61
2022/12/05 11:01:54;;;;;;;;;50.75;43.25;;;;;5.07;71.86;101408.00;5095295;27;45426;-59
2022/12/05 11:04:40;;;;;;;;;62.25;45.50;;;;;5.07;70.19;101399.22;5087421;27;45545;-60
2022/12/05 11:07:05;;;;;;;;;61.00;45.50;;;;;5.10;70.04;101412.38;5099856;27;45500;-62
2022/12/05 11:09:46;;;;;;;;;57.00;44.00;;;;;5.08;70.42;101404.50;5091589;27;45414;-61
2022/12/05 11:12:39;;;;;;;;;63.50;49.25;;;;;5.08;70.87;101391.31;5079516;27;45382;-63
2022/12/05 11:15:26;;;;;;;;;50.75;45.00;;;;;5.20;70.36;101401.56;5081298;27;45362;-60
2022/12/05 11:17:54;;;;;;;;;53.00;45.00;;;;;5.23;69.31;101400.66;5076678;28;45421;-60
2022/12/05 11:20:19;;;;;;;;;59.50;45.50;;;;;5.21;69.31;101407.75;5066545;27;45510;-59
2022/12/05 11:22:48;;;;;;;;;51.00;45.25;;;;;5.12;69.59;101407.94;5096987;27;45512;-59
2022/12/05 11:25:28;;;;;;;;;48.00;42.75;;;;;5.00;69.66;101414.31;5098741;27;45536;-59
2022/12/05 11:27:55;;;;;;;;;57.00;42.50;;;;;4.96;70.41;101402.09;5093039;27;45583;-60
2022/12/05 11:30:26;;;;;;;;;59.25;39.00;;;;;4.76;68.59;101401.59;5078575;27;45470;-60
2022/12/05 11:33:10;;;;;;;;;48.75;39.00;;;;;4.73;70.42;101398.13;5091204;27;45992;-60
2022/12/05 11:35:36;;;;;;;;;66.00;44.25;;;;;4.90;69.80;101410.13;5093142;27;45475;-60
2022/12/05 11:38:04;;;;;;;;;50.75;42.00;;;;;4.88;69.99;101402.25;5073453;27;45916;-60